METAR Data
IDs: Format: Raw Decoded Include TAF

Data at: 2308 UTC 25 Oct 2021

PABT 252253Z 16004KT 4SM -SN BR FEW006 BKN009 OVC028 M01/M02 A2921 RMK AO2 SLP905 P0000 T10061022
PABT 252248Z 16005KT 4SM -SN BR FEW006 BKN009 OVC028 M01/M02 A2921 RMK AO2 P0000
PABT 252153Z 18003KT 3SM -SN BR SCT006 OVC028 M01/M02 A2921 RMK AO2 SLP905 P0001 T10111022
PABT 252053Z 00000KT 3SM -SN BR FEW006 BKN028 OVC043 M01/M02 A2921 RMK AO2 SLP903 P0000 60002 T10111022 53002
PABT 251953Z 00000KT 6SM -SN BR FEW006 BKN028 OVC043 M02/M03 A2920 RMK AO2 SLP902 P0001 T10171033
PABT 251951Z 00000KT 4SM -SN BR FEW006 BKN028 OVC043 M02/M03 A2920 RMK AO2 P0001
PABT 251936Z 00000KT 3SM -SN BR OVC028 M02/M03 A2920 RMK AO2 P0000 T10171033
PABT 251853Z 00000KT 2 1/2SM -SN BR OVC028 M02/M03 A2920 RMK AO2 SLP901 P0001 T10221033
PABT 251753Z 00000KT 2 1/2SM -SN BR OVC028 M02/M03 A2920 RMK AO2 SLP901 4/006 P0000 60005 T10221033 11022 21022 58003
PABT 251653Z 00000KT 4SM -SN BR OVC029 M02/M03 A2920 RMK AO2 SLP903 P0000 T10221033
PABT 251648Z 00000KT 4SM -SN BR OVC029 M02/M03 A2920 RMK AO2 P0000
PABT 251621Z 00000KT 2SM -SN BR FEW012 OVC026 M02/M03 A2921 RMK AO2 P0000 T10221033 $
PABT 251553Z 00000KT 3SM -SN BR FEW007 SCT017 OVC024 M02/M03 A2921 RMK AO2 SLP904 P0000 T10221033 $
PABT 251453Z COR 00000KT 3SM -SN BR BKN006 OVC026 M02/M03 A2922 RMK AO2 SLP907 P0001 60005 T10221033 56008 $
PABT 251441Z 00000KT 3SM -SN BR BKN006 OVC026 M02/M03 A2922 RMK AO2 P0001 T10221033 $
PABT 251427Z 00000KT 3SM -SN BR SCT006 BKN024 OVC035 M02/M03 A2922 RMK AO2 P0001 T10221033 $
PABT 251406Z 00000KT 1SM -SN BR FEW006 OVC018 M02/M03 A2922 RMK AO2 P0001 T10221033 $
PABT 251353Z 00000KT 1SM -SN BR VV020 M02/M03 A2922 RMK AO2 SLP909 P0003 T10221033 $
PABT 251331Z 00000KT 1 1/2SM -SN BR OVC029 M02/M03 A2923 RMK AO2 P0002 T10221033 $
PABT 251306Z 00000KT 3SM -SN BR BKN030 OVC045 M02/M03 A2923 RMK AO2 P0001 T10221033 $
PABT 251253Z 00000KT 1SM -SN BR FEW015 OVC022 M02/M03 A2923 RMK AO2 SLP913 P0001 T10221033 $
PABT 251217Z 00000KT 1 1/2SM -SN BR FEW012 BKN030 OVC050 M02/M03 A2924 RMK AO2 P0000 T10221033 $
PABT 251153Z 00000KT 1/2SM SN FZFG VV014 M02/M03 A2924 RMK AO2 SLP916 4/005 P0004 60009 70009 T10221033 11017 21022 58012 $
PABT 251132Z 00000KT 1/2SM SN FZFG VV014 M02/M03 A2925 RMK AO2 P0003 T10221033 $
PABT 251053Z 00000KT 1SM -SN BR VV020 M02/M03 A2926 RMK AO2 SLP919 P0002 T10221033 $
PABT 250953Z 32003KT 1SM -SN BR OVC022 M02/M03 A2927 RMK AO2 SLP924 P0002 T10221033
PABT 250943Z 31003KT 1SM -SN BR OVC028 M02/M04 A2927 RMK AO2 P0001 T10221039
PABT 250907Z 00000KT 2SM -SN BR OVC030 M02/M04 A2928 RMK AO2 P0000 T10221039
PABT 250853Z 00000KT 6SM -SN BR OVC036 M02/M04 A2928 RMK AO2 SLP928 P0000 60001 T10221039 400061022 58015
PABT 250828Z 35003KT 6SM -SN BR FEW006 SCT024 OVC038 M02/M04 A2928 RMK AO2 P0000 T10221039
PABT 250804Z 00000KT 8SM -SN SCT007 OVC021 M02/M04 A2929 RMK AO2 P0000 T10171039
PABT 250653Z 00000KT 8SM -SN BKN020 BKN045 OVC065 M02/M04 A2931 RMK AO2 SLP938 P0001 T10171039
PABT 250553Z 31003KT 4SM -SN BR FEW025 BKN045 OVC070 M02/M03 A2932 RMK AO2 SNB02 SLP943 4/004 P0000 60000 T10171033 10000 21017 58017
PABT 250510Z 35003KT 4SM -SN BR SCT025 OVC037 M01/M04 A2934 RMK AO2 SNB02 P0000 T10111039
PABT 250453Z 00000KT 10SM BKN023 OVC060 M01/M04 A2934 RMK AO2 SNB08E52 SLP949 P0000 T10111039
PABT 250353Z 33003KT 10SM OVC024 M01/M04 A2936 RMK AO2 SLP955 T10111044
PABT 250253Z 00000KT 10SM BKN025 OVC065 M01/M04 A2937 RMK AO2 SLP961 T10061039 57008
PABT 250153Z 33004KT 10SM OVC020 M01/M03 A2938 RMK AO2 SLP963 T10061033
PABT 250053Z 00000KT 10SM OVC021 00/M03 A2939 RMK AO2 SLP967 T00001033
PABT 250016Z 00000KT 10SM BKN022 OVC030 00/M03 A2940 RMK AO2 T00001028
PABT 250000Z 00000KT 10SM SCT024 BKN030 OVC070 00/M03 A2940 RMK AO2 T00001028
PABT 242353Z COR 32003KT 10SM SCT024 BKN030 OVC070 00/M03 A2940 RMK AO2 SNE11 SLP968 4/004 P0000 60000 T00001028 10006 21022 58009
PABT 242253Z 01003KT 10SM -SN SCT024 BKN030 BKN070 01/M03 A2941 RMK AO2 SNB22 SLP974 P0000 T00061028
PABT 242153Z 33003KT 10SM BKN024 OVC026 00/M04 A2943 RMK AO2 SLP977 BINOVC DSNT E AND DSNT SE SHSN VC SW-W T00001039
PABT 242053Z 33003KT 10SM BKN024 OVC026 M01/M04 A2943 RMK AO2 SLP978 BINOVC DSNT E AND DSNT SE T10061039 50001
PABT 242037Z 32003KT 10SM FEW018 BKN024 OVC026 M01/M04 A2943 RMK AO2 BINOVC DSNT E T10061044
PABT 241953Z 32003KT 10SM FEW018 SCT024 BKN030 M02/M05 A2943 RMK AO2 SLP980 T10171050
PABT 241926Z 00000KT 10SM FEW018 FEW022 BKN030 M02/M05 A2943 RMK AO2 T10171050
PABT 241853Z 32003KT 10SM FEW018 SCT022 BKN025 M02/M05 A2943 RMK AO2 SLP978 T10171050
PABT 241753Z 33003KT 10SM FEW022 BKN025 M02/M05 A2942 RMK AO2 SLP977 4/004 60000 T10171050 11011 21017 50005
PABT 241653Z 33003KT 10SM SCT022 OVC028 M02/M05 A2943 RMK AO2 SLP977 BINOVC DSNT E T10171050
PABT 241553Z 31003KT 10SM SCT022 OVC028 M02/M05 A2942 RMK AO2 SLP976 BINOVC DSNT E T10171050
PABT 241453Z 35004KT 10SM OVC022 M02/M05 A2941 RMK AO2 SLP972 60000 T10171050 51007
PABT 241353Z 00000KT 10SM OVC023 M02/M05 A2941 RMK AO2 SNB16E27 SLP970 P0000 T10171050
PABT 241253Z 33004KT 10SM OVC023 M01/M06 A2940 RMK AO2 SLP968 T10111056
PABT 241153Z 31003KT 10SM OVC024 M02/M06 A2939 RMK AO2 SLP964 4/004 T10171056 10006 21022 53015